Time;durP1;ratioP1;P1;durP2;ratioP2;P2;SDS_P1;SDS_P2;PMS_P1;PMS_P2;Temp;Humidity;BMP_temperature;BMP_pressure;BME280_temperature;BME280_humidity;BME280_pressure;Samples;Min_cycle;Max_cycle;Signal;HPM_P1;HPM_P2
2023/08/13 00:01:44;;;;;;;13.07;3.27;;;16.80;99.90;;;;;;5095831;28;20036;-74
2023/08/13 00:04:10;;;;;;;11.73;3.30;;;16.70;99.90;;;;;;5094542;28;20052;-74
2023/08/13 00:06:36;;;;;;;11.40;3.83;;;16.70;99.90;;;;;;5094959;28;20090;-73
2023/08/13 00:09:02;;;;;;;9.03;2.93;;;16.70;99.90;;;;;;5094473;28;20032;-74
2023/08/13 00:11:27;;;;;;;12.00;2.90;;;16.70;99.90;;;;;;5095733;28;20048;-74
2023/08/13 00:13:53;;;;;;;11.57;3.87;;;16.70;99.90;;;;;;5095073;28;20097;-74
2023/08/13 00:16:19;;;;;;;11.80;3.43;;;16.60;99.90;;;;;;5095604;28;20130;-74
2023/08/13 00:18:45;;;;;;;9.23;2.80;;;16.60;99.90;;;;;;5095736;28;20055;-74
2023/08/13 00:21:11;;;;;;;11.63;2.90;;;16.60;99.90;;;;;;5095321;28;20043;-74
2023/08/13 00:23:37;;;;;;;12.13;3.00;;;16.60;99.90;;;;;;5095588;28;20047;-74
2023/08/13 00:26:03;;;;;;;12.77;3.03;;;16.60;99.90;;;;;;5077368;28;20046;-74
2023/08/13 00:28:29;;;;;;;9.80;3.57;;;16.60;99.90;;;;;;5095476;28;20411;-74
2023/08/13 00:30:54;;;;;;;11.70;3.10;;;16.50;99.90;;;;;;5094798;28;20048;-74
2023/08/13 00:33:20;;;;;;;10.37;3.43;;;16.50;99.90;;;;;;5094104;28;20176;-73
2023/08/13 00:35:48;;;;;;;15.30;3.67;;;16.50;99.90;;;;;;5094165;28;20402;-74
2023/08/13 00:38:14;;;;;;;10.23;2.90;;;16.50;99.90;;;;;;5095046;28;20047;-74
2023/08/13 00:40:40;;;;;;;16.43;3.83;;;16.50;99.90;;;;;;5095294;28;20040;-74
2023/08/13 00:43:05;;;;;;;15.87;3.93;;;16.50;99.90;;;;;;5077131;28;20040;-74
2023/08/13 00:45:34;;;;;;;15.03;3.23;;;16.50;99.90;;;;;;5095368;28;20051;-73
2023/08/13 00:48:00;;;;;;;13.30;3.33;;;16.50;99.90;;;;;;5094397;28;20510;-74
2023/08/13 00:50:26;;;;;;;12.13;3.13;;;16.50;99.90;;;;;;5094693;28;20506;-74
2023/08/13 00:52:52;;;;;;;11.93;3.27;;;16.50;99.90;;;;;;5094930;28;20042;-74
2023/08/13 00:55:18;;;;;;;16.07;4.33;;;16.50;99.90;;;;;;5095012;28;20114;-73
2023/08/13 00:57:44;;;;;;;13.00;3.00;;;16.50;99.90;;;;;;5094991;28;20051;-74
2023/08/13 01:00:11;;;;;;;11.87;3.33;;;16.50;99.90;;;;;;5076578;28;20039;-74
2023/08/13 01:02:38;;;;;;;12.37;3.27;;;16.50;99.90;;;;;;5093603;28;20075;-74
2023/08/13 01:05:07;;;;;;;13.37;3.43;;;16.50;99.90;;;;;;5093331;28;20432;-74
2023/08/13 01:07:43;;;;;;;14.37;3.57;;;16.50;99.90;;;;;;5093812;28;20051;-74
2023/08/13 01:10:27;;;;;;;11.00;3.23;;;16.50;99.90;;;;;;5094505;28;20445;-74
2023/08/13 01:13:08;;;;;;;15.10;3.63;;;16.50;99.90;;;;;;5094573;28;20039;-73
2023/08/13 01:15:37;;;;;;;10.40;3.00;;;16.50;99.90;;;;;;5094799;28;20043;-74
2023/08/13 01:18:04;;;;;;;12.00;2.60;;;16.50;99.90;;;;;;5094282;28;20454;-74
2023/08/13 01:20:31;;;;;;;11.07;3.80;;;16.50;99.90;;;;;;5093560;28;20067;-74
2023/08/13 01:22:57;;;;;;;18.57;5.20;;;16.50;99.90;;;;;;5094419;28;20115;-73
2023/08/13 01:25:25;;;;;;;12.77;3.50;;;16.50;99.90;;;;;;5094323;28;20040;-74
2023/08/13 01:28:01;;;;;;;14.40;3.70;;;16.50;99.90;;;;;;5094318;28;20051;-74
2023/08/13 01:30:39;;;;;;;14.07;4.17;;;16.50;99.90;;;;;;5094708;28;20349;-74
2023/08/13 01:33:07;;;;;;;11.83;3.13;;;16.50;99.90;;;;;;5088375;28;20400;-74
2023/08/13 01:35:34;;;;;;;14.73;3.80;;;16.60;99.90;;;;;;5093870;28;20480;-74
2023/08/13 01:38:01;;;;;;;14.27;3.80;;;16.60;99.90;;;;;;5092673;28;20480;-74
2023/08/13 01:40:27;;;;;;;12.73;3.43;;;16.60;99.90;;;;;;5093120;28;20044;-74
2023/08/13 01:42:53;;;;;;;14.13;3.77;;;16.60;99.90;;;;;;5094021;28;20059;-74
2023/08/13 01:45:18;;;;;;;17.70;3.57;;;16.60;99.90;;;;;;5093745;28;20040;-74
2023/08/13 01:47:45;;;;;;;12.37;4.17;;;16.70;99.90;;;;;;5093906;28;20071;-74
2023/08/13 01:50:11;;;;;;;14.40;4.17;;;16.70;99.90;;;;;;5093695;28;20055;-74
2023/08/13 01:52:36;;;;;;;13.97;3.40;;;16.70;99.90;;;;;;5094055;28;20032;-74
2023/08/13 01:55:03;;;;;;;17.10;4.03;;;16.70;99.90;;;;;;5093583;28;20122;-75
2023/08/13 01:57:29;;;;;;;12.93;3.20;;;16.70;99.90;;;;;;5093856;28;20040;-74
2023/08/13 01:59:55;;;;;;;14.77;3.93;;;16.70;99.90;;;;;;5093048;28;20548;-74
2023/08/13 02:02:20;;;;;;;11.17;3.57;;;16.60;99.90;;;;;;5092241;28;20058;-74
2023/08/13 02:04:46;;;;;;;14.70;3.40;;;16.60;99.90;;;;;;5093662;28;20035;-74
2023/08/13 02:07:12;;;;;;;12.63;4.53;;;16.60;99.90;;;;;;5092163;28;20078;-74
2023/08/13 02:09:37;;;;;;;16.63;3.63;;;16.60;99.90;;;;;;5093752;28;20499;-74
2023/08/13 02:12:03;;;;;;;13.87;3.80;;;16.60;99.90;;;;;;5093420;28;20075;-74
2023/08/13 02:14:29;;;;;;;15.20;4.10;;;16.60;99.90;;;;;;5092311;28;20114;-74
2023/08/13 02:16:55;;;;;;;13.63;3.63;;;16.50;99.90;;;;;;5093471;28;20476;-74
2023/08/13 02:19:20;;;;;;;13.30;3.40;;;16.50;99.90;;;;;;5093148;28;20040;-74
2023/08/13 02:21:46;;;;;;;14.10;4.17;;;16.50;99.90;;;;;;5093519;28;20371;-74
2023/08/13 02:24:12;;;;;;;12.00;4.40;;;16.50;99.90;;;;;;5093366;28;20478;-74
2023/08/13 02:26:37;;;;;;;12.47;3.73;;;16.50;99.90;;;;;;5093351;28;20118;-74
2023/08/13 02:29:03;;;;;;;12.47;3.53;;;16.40;99.90;;;;;;5093316;28;20036;-74
2023/08/13 02:31:29;;;;;;;15.80;3.50;;;16.40;99.90;;;;;;5092428;28;20043;-74
2023/08/13 02:33:55;;;;;;;12.87;3.20;;;16.40;99.90;;;;;;5093013;28;20043;-74
2023/08/13 02:36:20;;;;;;;13.83;4.20;;;16.40;99.90;;;;;;5092993;28;20046;-74
2023/08/13 02:38:46;;;;;;;14.90;3.73;;;16.40;99.90;;;;;;5091951;28;20040;-74
2023/08/13 02:41:12;;;;;;;10.77;3.73;;;16.40;99.90;;;;;;5092933;28;20044;-74
2023/08/13 02:43:54;;;;;;;17.50;4.10;;;16.40;99.90;;;;;;5093191;28;20047;-74
2023/08/13 02:46:24;;;;;;;14.43;3.60;;;16.40;99.90;;;;;;5091813;28;20376;-74
2023/08/13 02:48:55;;;;;;;16.53;4.37;;;16.30;99.90;;;;;;5093343;28;20119;-74
2023/08/13 02:51:22;;;;;;;13.67;3.93;;;16.30;99.90;;;;;;5092857;28;20040;-74
2023/08/13 02:53:47;;;;;;;15.70;3.53;;;16.30;99.90;;;;;;5092928;28;20123;-74
2023/08/13 02:56:13;;;;;;;15.73;4.03;;;16.30;99.90;;;;;;5092730;28;20119;-74
2023/08/13 02:58:39;;;;;;;12.67;3.60;;;16.30;99.90;;;;;;5093281;28;20080;-74
2023/08/13 03:01:05;;;;;;;16.77;4.63;;;16.20;99.90;;;;;;5093019;28;20391;-73
2023/08/13 03:03:31;;;;;;;16.03;4.23;;;16.20;99.90;;;;;;5092682;28;20046;-74
2023/08/13 03:05:58;;;;;;;13.73;3.90;;;16.20;99.90;;;;;;5091996;28;20126;-74
2023/08/13 03:08:24;;;;;;;11.60;3.83;;;16.30;99.90;;;;;;5092621;28;20468;-74
2023/08/13 03:10:50;;;;;;;14.93;4.27;;;16.30;99.90;;;;;;5093417;28;20131;-74
2023/08/13 03:13:15;;;;;;;23.30;4.60;;;16.30;99.90;;;;;;5095445;28;20119;-74
2023/08/13 03:15:41;;;;;;;16.63;4.10;;;16.40;99.90;;;;;;5096821;28;20040;-74
2023/08/13 03:18:07;;;;;;;17.23;3.83;;;16.40;99.90;;;;;;5096926;28;20048;-74
2023/08/13 03:20:34;;;;;;;19.30;5.00;;;16.40;99.90;;;;;;5096563;28;20480;-74
2023/08/13 03:22:59;;;;;;;15.90;3.90;;;16.40;99.90;;;;;;5095534;28;20047;-74
2023/08/13 03:25:25;;;;;;;17.03;3.97;;;16.40;99.90;;;;;;5096430;28;20048;-74
2023/08/13 03:27:51;;;;;;;14.80;3.83;;;16.40;99.90;;;;;;5096636;28;20487;-74
2023/08/13 03:30:17;;;;;;;12.20;3.73;;;16.40;99.90;;;;;;5095164;28;20368;-74
2023/08/13 03:32:43;;;;;;;18.13;4.50;;;16.40;99.90;;;;;;5095966;28;20044;-74
2023/08/13 03:35:08;;;;;;;13.77;3.60;;;16.40;99.90;;;;;;5096741;28;20040;-74
2023/08/13 03:37:34;;;;;;;14.73;3.70;;;16.50;99.90;;;;;;5078382;28;20058;-74
2023/08/13 03:40:00;;;;;;;13.47;3.97;;;16.50;99.90;;;;;;5096476;28;20039;-74
2023/08/13 03:42:26;;;;;;;14.03;4.00;;;16.50;99.90;;;;;;5096109;28;20040;-74
2023/08/13 03:44:51;;;;;;;14.50;4.33;;;16.50;99.90;;;;;;5096373;28;20046;-74
2023/08/13 03:47:17;;;;;;;16.37;4.07;;;16.60;99.90;;;;;;5096068;28;20039;-75
2023/08/13 03:49:43;;;;;;;16.63;4.40;;;16.60;99.90;;;;;;5095037;28;20380;-74
2023/08/13 03:52:11;;;;;;;13.43;3.87;;;16.60;99.90;;;;;;5095125;28;20040;-74
2023/08/13 03:54:37;;;;;;;14.43;4.10;;;16.70;99.90;;;;;;5095841;28;20242;-74
2023/08/13 03:57:03;;;;;;;15.80;4.90;;;16.70;99.90;;;;;;5094880;28;20536;-74
2023/08/13 03:59:28;;;;;;;14.03;3.93;;;16.70;99.90;;;;;;5095462;28;20044;-74
2023/08/13 04:01:54;;;;;;;15.63;3.73;;;16.70;99.90;;;;;;5095953;28;20047;-74
2023/08/13 04:04:20;;;;;;;15.40;4.20;;;16.70;99.90;;;;;;5078016;28;20035;-74
2023/08/13 04:06:46;;;;;;;21.00;4.50;;;16.70;99.90;;;;;;5095161;28;20040;-74
2023/08/13 04:09:11;;;;;;;14.90;3.63;;;16.80;99.90;;;;;;5094791;28;20516;-74
2023/08/13 04:11:37;;;;;;;11.43;3.50;;;16.80;99.90;;;;;;5095590;28;20043;-74
2023/08/13 04:14:03;;;;;;;14.00;3.77;;;16.80;99.90;;;;;;5095723;28;20420;-74
2023/08/13 04:16:29;;;;;;;12.93;4.17;;;16.80;99.90;;;;;;5077513;28;20121;-74
2023/08/13 04:18:54;;;;;;;16.03;4.37;;;16.80;99.90;;;;;;5095896;28;20468;-74
2023/08/13 04:21:20;;;;;;;15.93;4.57;;;16.80;99.90;;;;;;5094415;28;20055;-74
2023/08/13 04:23:46;;;;;;;16.07;4.30;;;16.80;99.90;;;;;;5094667;28;20044;-74
2023/08/13 04:26:11;;;;;;;13.37;4.00;;;16.90;99.90;;;;;;5095626;28;20042;-74
2023/08/13 04:28:37;;;;;;;15.80;3.90;;;16.90;99.90;;;;;;5095180;28;20385;-74
2023/08/13 04:31:03;;;;;;;12.57;4.10;;;16.90;99.90;;;;;;5094441;28;20043;-73
2023/08/13 04:33:28;;;;;;;14.83;4.93;;;16.90;99.90;;;;;;5095081;28;20046;-74
2023/08/13 04:35:54;;;;;;;15.13;4.37;;;16.90;99.90;;;;;;5094474;28;20040;-74
2023/08/13 04:38:21;;;;;;;16.97;4.33;;;16.90;99.90;;;;;;5095259;28;20459;-74
2023/08/13 04:40:47;;;;;;;17.67;4.60;;;16.90;99.90;;;;;;5095096;28;20128;-74
2023/08/13 04:43:14;;;;;;;12.43;3.37;;;16.90;99.90;;;;;;5094154;28;20345;-74
2023/08/13 04:45:40;;;;;;;14.17;4.20;;;16.90;99.90;;;;;;5094908;28;20105;-74
2023/08/13 04:48:06;;;;;;;15.57;4.03;;;16.90;99.90;;;;;;5095116;28;20036;-74
2023/08/13 04:50:32;;;;;;;17.30;4.53;;;17.00;99.90;;;;;;5094838;28;20040;-74
2023/08/13 04:52:58;;;;;;;14.87;4.77;;;17.00;99.90;;;;;;5094917;28;20122;-74
2023/08/13 04:55:24;;;;;;;11.83;3.57;;;17.10;99.90;;;;;;5094042;28;20115;-74
2023/08/13 04:57:50;;;;;;;16.80;4.87;;;17.10;99.90;;;;;;5095205;28;20048;-74
2023/08/13 05:00:16;;;;;;;12.70;3.80;;;17.10;99.90;;;;;;5094996;28;20486;-74
2023/08/13 05:02:41;;;;;;;16.10;3.77;;;17.10;99.90;;;;;;5094513;28;20065;-74
2023/08/13 05:05:07;;;;;;;12.97;3.53;;;17.20;99.90;;;;;;5094740;28;20109;-74
2023/08/13 05:07:33;;;;;;;16.37;4.73;;;17.20;99.90;;;;;;5094545;28;20035;-74
2023/08/13 05:09:58;;;;;;;13.00;4.13;;;17.20;99.90;;;;;;5095080;28;20048;-74
2023/08/13 05:12:24;;;;;;;14.77;3.83;;;17.20;99.90;;;;;;5093405;28;20536;-74
2023/08/13 05:14:50;;;;;;;12.87;3.73;;;17.30;99.90;;;;;;5094369;28;20051;-74
2023/08/13 05:17:18;;;;;;;13.90;5.17;;;17.30;99.90;;;;;;5093353;28;20426;-74
2023/08/13 05:19:44;;;;;;;16.53;3.90;;;17.30;99.90;;;;;;5094280;28;20097;-74
2023/08/13 05:22:09;;;;;;;13.70;3.53;;;17.30;99.90;;;;;;5094399;28;20411;-74
2023/08/13 05:24:35;;;;;;;14.77;4.33;;;17.20;99.90;;;;;;5094212;28;20070;-74
2023/08/13 05:27:01;;;;;;;14.70;3.77;;;17.30;99.90;;;;;;5093976;28;20084;-74
2023/08/13 05:29:26;;;;;;;19.27;3.97;;;17.30;99.90;;;;;;5094351;28;20043;-74
2023/08/13 05:31:53;;;;;;;19.77;4.30;;;17.30;99.90;;;;;;5093510;28;20070;-74
2023/08/13 05:34:19;;;;;;;15.80;3.83;;;17.30;99.90;;;;;;5093660;28;20598;-74
2023/08/13 05:36:45;;;;;;;13.60;4.17;;;17.30;99.90;;;;;;5092361;28;20044;-74
2023/08/13 05:39:10;;;;;;;10.87;3.67;;;17.30;99.90;;;;;;5094100;28;20432;-74
2023/08/13 05:41:36;;;;;;;19.13;4.53;;;17.40;99.90;;;;;;5093857;28;20122;-74
2023/08/13 05:44:02;;;;;;;19.00;5.27;;;17.30;99.90;;;;;;5092957;28;20044;-74
2023/08/13 05:46:28;;;;;;;11.03;3.83;;;17.30;99.90;;;;;;5092809;28;20118;-74
2023/08/13 05:48:54;;;;;;;11.53;3.97;;;17.40;99.90;;;;;;5092670;28;20523;-74
2023/08/13 05:51:20;;;;;;;11.80;4.10;;;17.40;99.90;;;;;;5076023;28;20044;-74
2023/08/13 05:53:46;;;;;;;13.27;3.60;;;17.40;99.90;;;;;;5093533;28;20040;-74
2023/08/13 05:56:12;;;;;;;12.57;4.00;;;17.40;99.90;;;;;;5094304;28;20047;-74
2023/08/13 05:58:37;;;;;;;15.57;3.73;;;17.40;99.90;;;;;;5093545;28;20051;-74
2023/08/13 06:01:04;;;;;;;13.93;3.80;;;17.40;99.90;;;;;;5093382;28;20084;-74
2023/08/13 06:03:29;;;;;;;12.57;3.70;;;17.40;99.90;;;;;;5093724;28;20147;-74
2023/08/13 06:05:56;;;;;;;12.13;4.53;;;17.50;99.90;;;;;;5093376;28;20085;-74
2023/08/13 06:08:22;;;;;;;15.30;3.97;;;17.50;99.90;;;;;;5093802;28;20040;-74
2023/08/13 06:10:48;;;;;;;14.33;3.87;;;17.50;99.90;;;;;;5093361;28;20122;-74
2023/08/13 06:13:14;;;;;;;17.60;4.07;;;17.60;99.90;;;;;;5093497;28;20173;-74
2023/08/13 06:15:40;;;;;;;16.30;4.20;;;17.70;99.90;;;;;;5093255;28;20040;-74
2023/08/13 06:18:06;;;;;;;14.03;3.97;;;17.90;99.90;;;;;;5093485;28;20047;-74
2023/08/13 06:20:31;;;;;;;15.77;3.87;;;18.30;99.90;;;;;;5093512;28;20429;-74
2023/08/13 06:22:57;;;;;;;15.70;4.27;;;18.60;99.90;;;;;;5092028;28;20047;-74
2023/08/13 06:25:23;;;;;;;12.70;4.17;;;18.80;99.90;;;;;;5093487;28;20051;-74
2023/08/13 06:27:49;;;;;;;11.23;3.70;;;18.90;99.90;;;;;;5093141;28;20050;-74
2023/08/13 06:30:14;;;;;;;12.03;3.40;;;19.40;99.90;;;;;;5093329;28;20468;-74
2023/08/13 06:32:40;;;;;;;17.00;4.60;;;19.70;99.90;;;;;;5093027;28;20105;-74
2023/08/13 06:35:06;;;;;;;12.80;3.60;;;19.70;99.90;;;;;;5092933;28;20479;-74
2023/08/13 06:37:32;;;;;;;12.63;4.37;;;19.50;99.90;;;;;;5093016;28;20396;-74
2023/08/13 06:39:58;;;;;;;8.90;3.17;;;19.50;99.90;;;;;;5092894;28;20043;-74
2023/08/13 06:42:23;;;;;;;13.03;3.23;;;20.20;99.90;;;;;;5092220;28;20130;-74
2023/08/13 06:44:49;;;;;;;14.60;3.73;;;20.60;99.90;;;;;;5092853;28;20059;-74
2023/08/13 06:47:15;;;;;;;11.77;3.87;;;20.80;99.90;;;;;;5092658;28;20032;-74
2023/08/13 06:49:40;;;;;;;14.17;3.73;;;21.50;99.90;;;;;;5091636;28;20044;-74
2023/08/13 06:52:06;;;;;;;10.57;3.17;;;22.60;99.90;;;;;;5093442;28;20080;-74
2023/08/13 06:54:33;;;;;;;9.87;2.97;;;23.50;99.90;;;;;;5093253;28;20050;-74
2023/08/13 06:56:59;;;;;;;12.47;3.60;;;24.50;99.90;;;;;;5092817;28;20501;-74
2023/08/13 06:59:25;;;;;;;10.73;3.47;;;25.30;99.90;;;;;;5093127;28;20040;-74
2023/08/13 07:01:51;;;;;;;10.37;3.13;;;25.90;99.90;;;;;;5092704;28;20046;-75
2023/08/13 07:04:17;;;;;;;11.77;3.37;;;26.00;99.90;;;;;;5093254;28;20036;-74
2023/08/13 07:06:43;;;;;;;14.47;4.00;;;25.70;99.90;;;;;;5092892;28;20051;-75
2023/08/13 07:09:08;;;;;;;11.10;3.23;;;25.80;99.90;;;;;;5091993;28;20052;-75
2023/08/13 07:11:36;;;;;;;11.50;3.57;;;26.50;99.90;;;;;;5093040;28;20040;-74
2023/08/13 07:14:03;;;;;;;11.90;3.33;;;27.10;99.90;;;;;;5092531;28;20040;-75
2023/08/13 07:16:29;;;;;;;12.37;3.47;;;27.80;99.90;;;;;;5092230;28;20118;-75
2023/08/13 07:18:55;;;;;;;11.90;3.60;;;28.10;99.90;;;;;;5092709;28;20093;-75
2023/08/13 07:21:21;;;;;;;13.53;3.27;;;28.20;98.90;;;;;;5092895;28;20432;-75
2023/08/13 07:23:47;;;;;;;12.53;3.17;;;27.50;97.00;;;;;;5092559;28;20115;-75
2023/08/13 07:26:13;;;;;;;11.23;4.13;;;26.70;99.90;;;;;;5092709;28;20536;-75
2023/08/13 07:28:40;;;;;;;9.73;3.60;;;25.90;99.90;;;;;;5092765;28;20051;-75
2023/08/13 07:31:06;;;;;;;9.87;2.70;;;25.10;99.90;;;;;;5092254;28;20058;-74
2023/08/13 07:33:32;;;;;;;11.03;3.77;;;24.40;99.90;;;;;;5092172;28;20044;-75
2023/08/13 07:36:03;;;;;;;9.37;3.23;;;23.80;99.90;;;;;;5092400;28;20078;-74
2023/08/13 07:38:29;;;;;;;8.83;2.67;;;23.70;99.90;;;;;;5092690;28;20048;-74
2023/08/13 07:40:56;;;;;;;14.70;3.80;;;23.60;99.90;;;;;;5074407;28;20078;-74
2023/08/13 07:43:24;;;;;;;13.30;3.13;;;23.60;99.90;;;;;;5091677;28;20040;-72
2023/08/13 07:45:50;;;;;;;11.67;3.20;;;23.30;99.90;;;;;;5092293;28;20055;-72
2023/08/13 07:48:16;;;;;;;10.27;2.97;;;23.00;99.90;;;;;;5092856;28;20040;-72
2023/08/13 07:50:42;;;;;;;10.37;3.03;;;22.60;99.90;;;;;;5092559;28;20361;-72
2023/08/13 07:53:08;;;;;;;12.60;3.67;;;22.30;99.90;;;;;;5092200;28;20147;-73
2023/08/13 07:55:34;;;;;;;10.53;3.30;;;22.00;99.90;;;;;;5092623;28;20047;-73
2023/08/13 07:57:59;;;;;;;11.20;2.80;;;21.80;99.90;;;;;;5092733;28;20128;-73
2023/08/13 08:00:26;;;;;;;11.53;3.37;;;22.20;99.90;;;;;;5096017;28;20044;-73
2023/08/13 08:02:53;;;;;;;11.23;3.03;;;22.60;99.90;;;;;;5094585;28;20114;-74
2023/08/13 08:05:22;;;;;;;9.73;3.07;;;22.70;99.90;;;;;;5095720;28;20044;-73
2023/08/13 08:07:48;;;;;;;11.37;3.17;;;22.70;99.90;;;;;;5095004;28;20483;-73
2023/08/13 08:10:13;;;;;;;12.70;2.80;;;22.70;99.90;;;;;;5095621;28;20036;-74
2023/08/13 08:12:39;;;;;;;10.77;2.73;;;23.10;99.90;;;;;;5095804;28;20047;-74
2023/08/13 08:15:06;;;;;;;10.27;3.10;;;23.70;99.90;;;;;;5095153;28;20044;-73
2023/08/13 08:17:32;;;;;;;11.10;3.17;;;24.30;99.90;;;;;;5095585;28;20078;-73
2023/08/13 08:19:59;;;;;;;10.50;3.33;;;24.50;99.90;;;;;;5095411;28;20543;-74
2023/08/13 08:22:26;;;;;;;11.57;2.90;;;24.30;99.90;;;;;;5094633;28;20116;-73
2023/08/13 08:24:54;;;;;;;9.47;2.80;;;24.10;99.90;;;;;;5094672;28;20051;-73
2023/08/13 08:27:20;;;;;;;11.63;2.90;;;24.00;99.90;;;;;;5094596;28;20529;-73
2023/08/13 08:29:45;;;;;;;10.47;2.73;;;23.80;99.90;;;;;;5095486;28;20040;-73
2023/08/13 08:32:11;;;;;;;10.87;2.83;;;23.50;99.90;;;;;;5093721;28;20143;-73
2023/08/13 08:34:37;;;;;;;10.40;2.37;;;23.30;99.90;;;;;;5095447;28;20044;-73
2023/08/13 08:37:04;;;;;;;10.50;2.93;;;23.20;99.90;;;;;;5095198;28;20540;-73
2023/08/13 08:39:30;;;;;;;10.13;2.93;;;23.10;99.90;;;;;;5095305;28;20040;-73
2023/08/13 08:41:57;;;;;;;12.73;2.33;;;23.10;99.90;;;;;;5095045;28;20040;-74
2023/08/13 08:44:24;;;;;;;10.57;2.43;;;22.90;99.90;;;;;;5094911;28;20491;-74
2023/08/13 08:46:51;;;;;;;9.97;3.10;;;22.80;99.90;;;;;;5095225;28;20048;-74
2023/08/13 08:49:18;;;;;;;10.47;2.70;;;22.70;99.90;;;;;;5094893;28;20063;-73
2023/08/13 08:51:48;;;;;;;7.80;2.27;;;22.70;99.90;;;;;;5093949;28;20036;-73
2023/08/13 08:54:15;;;;;;;13.20;2.80;;;22.70;99.90;;;;;;5094752;28;20040;-73
2023/08/13 08:56:41;;;;;;;9.17;2.47;;;22.60;99.90;;;;;;5095125;28;20050;-73
2023/08/13 08:59:07;;;;;;;8.73;2.33;;;22.50;99.90;;;;;;5094678;28;20104;-71
2023/08/13 09:01:33;;;;;;;7.37;2.37;;;22.40;99.90;;;;;;5095056;28;20043;-72
2023/08/13 09:04:00;;;;;;;8.00;3.03;;;22.20;99.90;;;;;;5094573;28;20040;-72
2023/08/13 09:07:02;;;;;;;12.03;3.00;;;22.10;99.90;;;;;;5094795;28;20104;-72
2023/08/13 09:09:29;;;;;;;11.30;2.87;;;22.00;99.90;;;;;;5094452;28;20043;-71
2023/08/13 09:11:56;;;;;;;8.87;2.40;;;21.90;99.90;;;;;;5094671;28;20128;-73
2023/08/13 09:14:23;;;;;;;12.27;2.87;;;22.00;99.90;;;;;;5094391;28;20047;-73
2023/08/13 09:16:51;;;;;;;10.67;2.70;;;22.10;99.90;;;;;;5094720;28;20084;-73
2023/08/13 09:19:18;;;;;;;9.20;2.53;;;22.20;99.90;;;;;;5093322;28;20480;-73
2023/08/13 09:21:48;;;;;;;8.73;3.00;;;22.40;99.90;;;;;;5094526;28;20040;-73
2023/08/13 09:24:14;;;;;;;7.57;1.80;;;22.50;99.90;;;;;;5094265;28;20123;-72
2023/08/13 09:26:40;;;;;;;10.30;2.20;;;22.50;99.90;;;;;;5093241;28;20122;-73
2023/08/13 09:29:07;;;;;;;10.10;2.20;;;22.50;99.90;;;;;;5094145;28;20039;-73
2023/08/13 09:31:33;;;;;;;9.50;2.43;;;22.50;99.90;;;;;;5094063;28;20096;-73
2023/08/13 09:34:00;;;;;;;8.43;2.53;;;22.50;99.90;;;;;;5094297;28;20052;-72
2023/08/13 09:36:27;;;;;;;9.17;2.10;;;22.50;99.90;;;;;;5093065;28;20540;-72
2023/08/13 09:38:52;;;;;;;8.63;2.33;;;22.50;99.90;;;;;;5094129;28;20087;-71
2023/08/13 09:41:20;;;;;;;7.57;2.60;;;22.50;99.90;;;;;;5093863;28;20080;-72
2023/08/13 09:43:48;;;;;;;9.33;2.50;;;22.50;99.90;;;;;;5094115;28;20115;-70
2023/08/13 09:46:20;;;;;;;8.93;2.20;;;22.50;99.90;;;;;;5093701;28;20036;-71
2023/08/13 09:48:47;;;;;;;9.87;2.70;;;22.60;99.90;;;;;;5092654;28;20117;-71
2023/08/13 09:51:17;;;;;;;8.77;2.30;;;22.60;99.90;;;;;;5093194;28;20060;-72
2023/08/13 09:53:51;;;;;;;10.83;2.60;;;22.70;99.90;;;;;;5093473;28;20032;-71
2023/08/13 09:56:20;;;;;;;7.38;2.05;;;22.80;99.90;;;;;;5093709;28;20157;-71
2023/08/13 09:58:46;;;;;;;7.63;2.20;;;22.70;99.90;;;;;;5093786;28;20079;-71
2023/08/13 10:01:13;;;;;;;8.00;1.83;;;22.70;99.90;;;;;;5093487;28;20047;-71
2023/08/13 10:03:39;;;;;;;11.17;2.33;;;22.70;99.90;;;;;;5093714;28;20051;-70
2023/08/13 10:06:06;;;;;;;9.97;2.37;;;22.70;99.90;;;;;;5093386;28;20040;-71
2023/08/13 10:08:32;;;;;;;8.20;2.33;;;22.90;99.90;;;;;;5093623;28;20125;-72
2023/08/13 10:10:59;;;;;;;10.07;2.33;;;22.90;99.90;;;;;;5092561;28;20058;-71
2023/08/13 10:13:25;;;;;;;8.63;2.57;;;22.90;99.90;;;;;;5093222;28;20078;-72
2023/08/13 10:15:51;;;;;;;7.20;2.10;;;22.90;99.90;;;;;;5093567;28;20105;-71
2023/08/13 10:18:17;;;;;;;8.07;2.37;;;22.90;99.90;;;;;;5093166;28;20051;-71
2023/08/13 10:20:46;;;;;;;8.83;2.43;;;22.90;99.90;;;;;;5092845;28;20132;-71
2023/08/13 10:23:12;;;;;;;7.20;2.10;;;23.00;99.90;;;;;;5093200;28;20086;-70
2023/08/13 10:25:39;;;;;;;10.07;2.20;;;23.10;99.90;;;;;;5092198;28;20043;-71
2023/08/13 10:28:20;;;;;;;7.73;2.20;;;23.10;99.90;;;;;;5093534;28;20043;-70
2023/08/13 10:30:47;;;;;;;6.63;2.00;;;23.20;99.90;;;;;;5093424;28;20040;-71
2023/08/13 10:33:14;;;;;;;9.80;2.13;;;23.20;99.90;;;;;;5093115;28;20048;-70
2023/08/13 10:35:40;;;;;;;9.13;1.90;;;23.10;99.90;;;;;;5093367;28;20075;-69
2023/08/13 10:38:10;;;;;;;5.60;2.00;;;23.20;99.90;;;;;;5092999;28;20078;-69
2023/08/13 10:40:36;;;;;;;7.30;1.83;;;23.20;99.90;;;;;;5093222;28;20070;-69
2023/08/13 10:43:05;;;;;;;9.20;2.40;;;23.20;99.90;;;;;;5093253;28;20043;-71
2023/08/13 10:45:38;;;;;;;8.83;2.00;;;23.10;99.90;;;;;;5092900;28;20138;-72
2023/08/13 10:48:08;;;;;;;9.37;2.10;;;23.00;99.90;;;;;;5092019;28;20039;-72
2023/08/13 10:50:39;;;;;;;9.00;2.00;;;23.00;99.90;;;;;;5091759;28;20040;-72
2023/08/13 10:53:09;;;;;;;6.50;1.97;;;23.00;99.90;;;;;;5093199;28;20117;-73
2023/08/13 10:55:40;;;;;;;6.67;2.03;;;23.00;99.90;;;;;;5092780;28;20086;-72
2023/08/13 10:58:07;;;;;;;7.20;1.80;;;23.10;99.90;;;;;;5092274;28;20428;-72
2023/08/13 11:00:42;;;;;;;7.37;1.90;;;23.30;99.90;;;;;;5091526;28;20044;-71
2023/08/13 11:03:23;;;;;;;6.83;2.20;;;23.50;99.90;;;;;;5093097;28;20036;-74
2023/08/13 11:05:51;;;;;;;7.07;2.60;;;23.60;99.90;;;;;;5092061;28;20040;-71
2023/08/13 11:08:19;;;;;;;6.73;2.00;;;23.70;99.90;;;;;;5091750;28;20453;-72
2023/08/13 11:10:46;;;;;;;6.57;2.10;;;23.70;99.90;;;;;;5092214;28;20051;-72
2023/08/13 11:13:13;;;;;;;5.87;2.00;;;23.70;99.90;;;;;;5092786;28;20040;-74
2023/08/13 11:15:40;;;;;;;7.20;2.30;;;23.60;99.90;;;;;;5092886;28;20131;-72
2023/08/13 11:18:06;;;;;;;6.57;1.83;;;23.50;99.90;;;;;;5092878;28;20040;-72
2023/08/13 11:20:31;;;;;;;5.80;1.93;;;23.50;99.90;;;;;;5092615;28;20040;-72
2023/08/13 11:22:57;;;;;;;6.67;1.87;;;23.50;99.90;;;;;;5091489;28;20543;-72
2023/08/13 11:25:26;;;;;;;5.67;2.10;;;23.50;99.90;;;;;;5092490;28;20122;-72
2023/08/13 11:27:52;;;;;;;9.23;2.40;;;23.40;99.90;;;;;;5092702;28;20040;-72
2023/08/13 11:30:17;;;;;;;7.03;2.03;;;23.40;99.90;;;;;;5091592;28;20071;-72
2023/08/13 11:32:44;;;;;;;5.30;1.97;;;23.40;99.90;;;;;;5094305;28;20066;-72
2023/08/13 11:35:10;;;;;;;4.50;1.67;;;23.30;99.90;;;;;;5096552;28;20051;-71
2023/08/13 11:37:40;;;;;;;8.77;2.93;;;23.30;99.90;;;;;;5096269;28;20036;-72
2023/08/13 11:40:07;;;;;;;7.10;2.10;;;23.20;99.90;;;;;;5096483;28;20044;-71
2023/08/13 11:42:33;;;;;;;7.40;2.13;;;23.20;99.90;;;;;;5096459;28;20032;-71
2023/08/13 11:44:58;;;;;;;6.57;1.60;;;23.20;99.90;;;;;;5096543;28;20047;-69
2023/08/13 11:47:26;;;;;;;6.33;2.13;;;23.20;99.90;;;;;;5096084;28;20055;-68
2023/08/13 11:49:52;;;;;;;7.80;2.00;;;23.20;99.90;;;;;;5095002;28;20097;-69
2023/08/13 11:52:19;;;;;;;7.57;2.27;;;23.10;99.90;;;;;;5092591;28;20110;-68
2023/08/13 11:54:45;;;;;;;6.63;1.77;;;23.10;99.90;;;;;;5113082;28;20139;-68
2023/08/13 11:57:10;;;;;;;4.07;1.40;;;23.10;99.90;;;;;;5113195;28;20522;-73
2023/08/13 11:59:37;;;;;;;5.17;1.77;;;23.10;99.90;;;;;;5104318;28;20040;-73
2023/08/13 12:02:02;;;;;;;5.47;2.13;;;23.20;99.90;;;;;;5094488;28;20132;-74
2023/08/13 12:04:32;;;;;;;3.73;1.47;;;23.30;99.90;;;;;;5109952;28;20036;-75
2023/08/13 12:06:59;;;;;;;4.70;1.50;;;23.30;99.90;;;;;;5115803;28;20211;-70
2023/08/13 12:09:25;;;;;;;4.93;1.43;;;23.40;99.90;;;;;;5108551;28;20036;-71
2023/08/13 12:11:54;;;;;;;4.40;1.60;;;23.50;99.90;;;;;;5095325;28;20036;-72
2023/08/13 12:14:20;;;;;;;4.77;2.10;;;23.50;99.90;;;;;;5095014;28;20046;-72
2023/08/13 12:16:45;;;;;;;6.47;1.90;;;23.50;99.90;;;;;;5094283;28;20040;-71
2023/08/13 12:19:11;;;;;;;4.23;1.67;;;23.50;99.90;;;;;;5094974;28;20044;-70
2023/08/13 12:21:37;;;;;;;4.93;1.53;;;23.50;99.90;;;;;;5095040;28;20040;-71
2023/08/13 12:24:05;;;;;;;5.50;1.93;;;23.50;99.90;;;;;;5104907;28;20035;-72
2023/08/13 12:26:32;;;;;;;5.33;1.60;;;23.50;99.90;;;;;;5115428;28;20050;-71
2023/08/13 12:28:58;;;;;;;5.47;1.80;;;23.50;99.90;;;;;;5109865;28;20036;-72
2023/08/13 12:31:25;;;;;;;7.17;2.03;;;23.60;99.90;;;;;;5094982;28;20044;-72
2023/08/13 12:33:54;;;;;;;5.67;1.57;;;23.60;99.90;;;;;;5054640;28;20043;-74
2023/08/13 12:36:20;;;;;;;4.70;1.47;;;23.60;99.90;;;;;;5053773;28;20048;-69
2023/08/13 12:38:46;;;;;;;4.37;1.40;;;23.60;99.90;;;;;;5053947;28;20133;-77